sensor_id;sensor_type;location;lat;lon;timestamp;pressure;altitude;pressure_sealevel;temperature;humidity
82035;BME280;71599;49.892;18.914;2024-02-14T00:02:30;99232.03;;;2.60;100.00
82035;BME280;71599;49.892;18.914;2024-02-14T00:07:31;99220.72;;;2.58;100.00
82035;BME280;71599;49.892;18.914;2024-02-14T00:12:32;99233.66;;;2.61;100.00
82035;BME280;71599;49.892;18.914;2024-02-14T00:17:35;99235.53;;;2.60;100.00
82035;BME280;71599;49.892;18.914;2024-02-14T00:22:36;99236.34;;;2.61;100.00
82035;BME280;71599;49.892;18.914;2024-02-14T00:27:37;99237.72;;;2.58;100.00
82035;BME280;71599;49.892;18.914;2024-02-14T00:32:39;99242.13;;;2.54;100.00
82035;BME280;71599;49.892;18.914;2024-02-14T00:37:40;99244.63;;;2.51;100.00
82035;BME280;71599;49.892;18.914;2024-02-14T00:42:41;99245.28;;;2.42;100.00
82035;BME280;71599;49.892;18.914;2024-02-14T00:47:43;99246.75;;;2.35;100.00
82035;BME280;71599;49.892;18.914;2024-02-14T00:52:44;99244.56;;;2.18;100.00
82035;BME280;71599;49.892;18.914;2024-02-14T00:57:45;99250.16;;;2.22;100.00
82035;BME280;71599;49.892;18.914;2024-02-14T01:02:47;99238.09;;;2.19;100.00
82035;BME280;71599;49.892;18.914;2024-02-14T01:07:48;99241.06;;;2.18;100.00
82035;BME280;71599;49.892;18.914;2024-02-14T01:12:49;99229.50;;;2.17;100.00
82035;BME280;71599;49.892;18.914;2024-02-14T01:17:51;99236.34;;;2.09;100.00
82035;BME280;71599;49.892;18.914;2024-02-14T01:22:52;99233.44;;;2.06;100.00
82035;BME280;71599;49.892;18.914;2024-02-14T01:27:53;99222.13;;;2.04;100.00
82035;BME280;71599;49.892;18.914;2024-02-14T01:32:55;99225.28;;;1.92;100.00
82035;BME280;71599;49.892;18.914;2024-02-14T01:37:56;99220.75;;;1.88;100.00
82035;BME280;71599;49.892;18.914;2024-02-14T01:42:57;99223.22;;;1.84;100.00
82035;BME280;71599;49.892;18.914;2024-02-14T01:48:00;99224.97;;;1.75;100.00
82035;BME280;71599;49.892;18.914;2024-02-14T01:53:02;99225.94;;;1.65;100.00
82035;BME280;71599;49.892;18.914;2024-02-14T01:58:03;99224.31;;;1.64;100.00
82035;BME280;71599;49.892;18.914;2024-02-14T02:03:06;99216.88;;;1.56;100.00
82035;BME280;71599;49.892;18.914;2024-02-14T02:08:07;99221.81;;;1.49;100.00
82035;BME280;71599;49.892;18.914;2024-02-14T02:13:09;99213.59;;;1.41;100.00
82035;BME280;71599;49.892;18.914;2024-02-14T02:18:11;99223.66;;;1.30;100.00
82035;BME280;71599;49.892;18.914;2024-02-14T02:23:13;99223.03;;;0.91;100.00
82035;BME280;71599;49.892;18.914;2024-02-14T02:28:14;99229.84;;;1.07;100.00
82035;BME280;71599;49.892;18.914;2024-02-14T02:33:15;99228.66;;;1.18;100.00
82035;BME280;71599;49.892;18.914;2024-02-14T02:38:17;99228.09;;;1.21;100.00
82035;BME280;71599;49.892;18.914;2024-02-14T02:43:18;99228.09;;;1.21;100.00
82035;BME280;71599;49.892;18.914;2024-02-14T02:48:19;99236.38;;;1.24;100.00
82035;BME280;71599;49.892;18.914;2024-02-14T02:53:22;99235.56;;;1.24;100.00
82035;BME280;71599;49.892;18.914;2024-02-14T02:58:23;99234.50;;;1.25;100.00
82035;BME280;71599;49.892;18.914;2024-02-14T03:03:24;99245.53;;;1.23;100.00
82035;BME280;71599;49.892;18.914;2024-02-14T03:08:26;99251.84;;;1.14;100.00
82035;BME280;71599;49.892;18.914;2024-02-14T03:13:27;99250.63;;;1.01;100.00
82035;BME280;71599;49.892;18.914;2024-02-14T03:18:28;99250.69;;;0.96;100.00
82035;BME280;71599;49.892;18.914;2024-02-14T03:23:30;99248.59;;;0.88;100.00
82035;BME280;71599;49.892;18.914;2024-02-14T03:28:31;99255.66;;;0.84;100.00
82035;BME280;71599;49.892;18.914;2024-02-14T03:33:32;99263.53;;;0.75;100.00
82035;BME280;71599;49.892;18.914;2024-02-14T03:38:34;99275.41;;;0.69;100.00
82035;BME280;71599;49.892;18.914;2024-02-14T03:43:35;99278.03;;;0.45;100.00
82035;BME280;71599;49.892;18.914;2024-02-14T03:48:36;99273.06;;;0.29;100.00
82035;BME280;71599;49.892;18.914;2024-02-14T03:53:38;99270.84;;;0.36;100.00
82035;BME280;71599;49.892;18.914;2024-02-14T03:58:39;99275.16;;;0.32;100.00
82035;BME280;71599;49.892;18.914;2024-02-14T04:03:40;99280.66;;;0.17;100.00
82035;BME280;71599;49.892;18.914;2024-02-14T04:08:43;99285.78;;;0.18;100.00
82035;BME280;71599;49.892;18.914;2024-02-14T04:13:43;99285.81;;;0.13;100.00
82035;BME280;71599;49.892;18.914;2024-02-14T04:18:44;99280.44;;;0.08;100.00
82035;BME280;71599;49.892;18.914;2024-02-14T04:23:46;99286.66;;;0.03;100.00
82035;BME280;71599;49.892;18.914;2024-02-14T04:28:47;99284.53;;;-0.05;100.00
82035;BME280;71599;49.892;18.914;2024-02-14T04:33:49;99288.06;;;-0.09;100.00
82035;BME280;71599;49.892;18.914;2024-02-14T04:38:51;99296.69;;;-0.12;100.00
82035;BME280;71599;49.892;18.914;2024-02-14T04:43:52;99296.22;;;-0.24;100.00
82035;BME280;71599;49.892;18.914;2024-02-14T04:48:53;99296.50;;;-0.26;100.00
82035;BME280;71599;49.892;18.914;2024-02-14T04:53:55;99292.75;;;-0.30;100.00
82035;BME280;71599;49.892;18.914;2024-02-14T04:58:56;99306.72;;;-0.33;100.00
82035;BME280;71599;49.892;18.914;2024-02-14T05:03:57;99301.41;;;-0.43;100.00
82035;BME280;71599;49.892;18.914;2024-02-14T05:08:59;99305.19;;;-0.49;100.00
82035;BME280;71599;49.892;18.914;2024-02-14T05:14:00;99313.81;;;-0.62;100.00
82035;BME280;71599;49.892;18.914;2024-02-14T05:19:01;99313.56;;;-0.66;100.00
82035;BME280;71599;49.892;18.914;2024-02-14T05:24:04;99311.13;;;-0.62;100.00
82035;BME280;71599;49.892;18.914;2024-02-14T05:29:05;99313.81;;;-0.62;100.00
82035;BME280;71599;49.892;18.914;2024-02-14T05:34:06;99307.09;;;-0.65;100.00
82035;BME280;71599;49.892;18.914;2024-02-14T05:39:09;99299.66;;;-0.98;100.00
82035;BME280;71599;49.892;18.914;2024-02-14T05:44:10;99305.84;;;-1.18;100.00
82035;BME280;71599;49.892;18.914;2024-02-14T05:49:10;99305.59;;;-1.11;100.00
82035;BME280;71599;49.892;18.914;2024-02-14T05:54:13;99304.47;;;-0.95;100.00
82035;BME280;71599;49.892;18.914;2024-02-14T05:59:14;99310.38;;;-0.93;100.00
82035;BME280;71599;49.892;18.914;2024-02-14T06:04:15;99311.72;;;-0.96;100.00
82035;BME280;71599;49.892;18.914;2024-02-14T06:09:17;99312.78;;;-0.87;100.00
82035;BME280;71599;49.892;18.914;2024-02-14T06:14:18;99318.38;;;-0.68;100.00
82035;BME280;71599;49.892;18.914;2024-02-14T06:19:19;99330.09;;;-0.39;100.00
82035;BME280;71599;49.892;18.914;2024-02-14T06:24:21;99322.19;;;-0.10;100.00
82035;BME280;71599;49.892;18.914;2024-02-14T06:29:22;99332.28;;;0.19;100.00
82035;BME280;71599;49.892;18.914;2024-02-14T06:34:23;99343.97;;;0.38;100.00
82035;BME280;71599;49.892;18.914;2024-02-14T06:39:25;99336.84;;;0.62;100.00
82035;BME280;71599;49.892;18.914;2024-02-14T06:44:26;99334.66;;;0.93;100.00
82035;BME280;71599;49.892;18.914;2024-02-14T06:49:27;99335.13;;;1.34;100.00
82035;BME280;71599;49.892;18.914;2024-02-14T06:54:29;99335.00;;;1.68;100.00
82035;BME280;71599;49.892;18.914;2024-02-14T06:59:30;99330.09;;;1.94;100.00
82035;BME280;71599;49.892;18.914;2024-02-14T07:04:31;99333.84;;;1.74;100.00
82035;BME280;71599;49.892;18.914;2024-02-14T07:09:33;99331.72;;;1.95;100.00
82035;BME280;71599;49.892;18.914;2024-02-14T07:14:34;99333.13;;;2.67;100.00
82035;BME280;71599;49.892;18.914;2024-02-14T07:19:35;99334.66;;;3.06;100.00
82035;BME280;71599;49.892;18.914;2024-02-14T07:24:37;99328.69;;;3.22;100.00
82035;BME280;71599;49.892;18.914;2024-02-14T07:29:38;99336.53;;;3.65;100.00
82035;BME280;71599;49.892;18.914;2024-02-14T07:34:39;99324.25;;;4.36;100.00
82035;BME280;71599;49.892;18.914;2024-02-14T07:39:41;99326.34;;;4.75;98.82
82035;BME280;71599;49.892;18.914;2024-02-14T07:44:42;99331.31;;;4.81;96.50
82035;BME280;71599;49.892;18.914;2024-02-14T07:49:43;99324.66;;;4.87;93.13
82035;BME280;71599;49.892;18.914;2024-02-14T07:54:45;99317.41;;;5.27;92.61
82035;BME280;71599;49.892;18.914;2024-02-14T07:59:46;99331.19;;;5.40;88.82
82035;BME280;71599;49.892;18.914;2024-02-14T08:04:47;99320.16;;;5.75;87.50
82035;BME280;71599;49.892;18.914;2024-02-14T08:09:49;99323.44;;;6.03;84.62
82035;BME280;71599;49.892;18.914;2024-02-14T08:14:51;99327.19;;;6.33;81.37
82035;BME280;71599;49.892;18.914;2024-02-14T08:19:52;99315.06;;;6.57;82.98
82035;BME280;71599;49.892;18.914;2024-02-14T08:24:54;99321.13;;;6.88;77.77
82035;BME280;71599;49.892;18.914;2024-02-14T08:29:55;99315.97;;;7.12;76.10
82035;BME280;71599;49.892;18.914;2024-02-14T08:34:56;99328.75;;;7.03;73.10
82035;BME280;71599;49.892;18.914;2024-02-14T08:39:59;99324.63;;;7.14;76.61
82035;BME280;71599;49.892;18.914;2024-02-14T08:45:00;99325.50;;;7.35;76.89
82035;BME280;71599;49.892;18.914;2024-02-14T08:50:01;99330.03;;;7.69;74.47
82035;BME280;71599;49.892;18.914;2024-02-14T08:55:04;99327.66;;;7.59;73.75
82035;BME280;71599;49.892;18.914;2024-02-14T09:00:06;99328.09;;;7.70;76.08
82035;BME280;71599;49.892;18.914;2024-02-14T09:05:08;99329.75;;;7.54;73.78
82035;BME280;71599;49.892;18.914;2024-02-14T09:10:10;99317.66;;;7.34;75.73
82035;BME280;71599;49.892;18.914;2024-02-14T09:15:11;99315.78;;;7.64;74.68
82035;BME280;71599;49.892;18.914;2024-02-14T09:20:12;99307.41;;;7.40;71.43
82035;BME280;71599;49.892;18.914;2024-02-14T09:25:15;99300.78;;;7.58;71.85
82035;BME280;71599;49.892;18.914;2024-02-14T09:30:16;99298.94;;;7.79;70.85
82035;BME280;71599;49.892;18.914;2024-02-14T09:35:17;99305.88;;;7.68;65.19
82035;BME280;71599;49.892;18.914;2024-02-14T09:40:19;99296.09;;;7.96;67.32
82035;BME280;71599;49.892;18.914;2024-02-14T09:45:22;99307.28;;;8.03;66.06
82035;BME280;71599;49.892;18.914;2024-02-14T09:50:26;99307.59;;;8.31;65.11
82035;BME280;71599;49.892;18.914;2024-02-14T09:55:29;99312.78;;;8.45;62.57
82035;BME280;71599;49.892;18.914;2024-02-14T10:00:31;99308.94;;;8.67;59.55
82035;BME280;71599;49.892;18.914;2024-02-14T10:05:32;99309.16;;;8.94;63.26
82035;BME280;71599;49.892;18.914;2024-02-14T10:10:34;99302.63;;;9.08;62.07
82035;BME280;71599;49.892;18.914;2024-02-14T10:15:35;99307.06;;;9.12;61.83
82035;BME280;71599;49.892;18.914;2024-02-14T10:20:36;99291.50;;;9.13;61.37
82035;BME280;71599;49.892;18.914;2024-02-14T10:25:39;99291.56;;;9.04;60.90
82035;BME280;71599;49.892;18.914;2024-02-14T10:30:40;99289.16;;;8.90;61.14
82035;BME280;71599;49.892;18.914;2024-02-14T10:35:41;99276.88;;;8.84;59.29
82035;BME280;71599;49.892;18.914;2024-02-14T10:40:46;99279.09;;;8.70;60.14
82035;BME280;71599;49.892;18.914;2024-02-14T10:45:48;99280.97;;;8.37;58.95
82035;BME280;71599;49.892;18.914;2024-02-14T10:50:53;99273.56;;;8.79;61.88
82035;BME280;71599;49.892;18.914;2024-02-14T10:55:57;99268.66;;;8.72;58.97
82035;BME280;71599;49.892;18.914;2024-02-14T11:00:58;99262.59;;;8.99;60.95
82035;BME280;71599;49.892;18.914;2024-02-14T11:06:01;99254.94;;;9.38;58.16
82035;BME280;71599;49.892;18.914;2024-02-14T11:11:06;99249.72;;;9.33;57.21
82035;BME280;71599;49.892;18.914;2024-02-14T11:16:09;99255.53;;;9.44;57.58
82035;BME280;71599;49.892;18.914;2024-02-14T11:21:16;99256.28;;;9.20;55.79
82035;BME280;71599;49.892;18.914;2024-02-14T11:26:18;99249.59;;;9.29;58.84
82035;BME280;71599;49.892;18.914;2024-02-14T11:31:19;99237.00;;;9.37;57.30
82035;BME280;71599;49.892;18.914;2024-02-14T11:36:20;99231.88;;;9.35;56.35
82035;BME280;71599;49.892;18.914;2024-02-14T11:41:22;99227.91;;;9.45;61.08
82035;BME280;71599;49.892;18.914;2024-02-14T11:46:24;99225.75;;;9.63;61.55
82035;BME280;71599;49.892;18.914;2024-02-14T11:51:25;99216.53;;;9.55;57.66
82035;BME280;71599;49.892;18.914;2024-02-14T11:56:28;99207.88;;;9.53;57.24
82035;BME280;71599;49.892;18.914;2024-02-14T12:01:30;99203.59;;;9.52;60.18
82035;BME280;71599;49.892;18.914;2024-02-14T12:06:32;99195.41;;;9.16;58.57
82035;BME280;71599;49.892;18.914;2024-02-14T12:11:36;99205.25;;;9.08;58.93
82035;BME280;71599;49.892;18.914;2024-02-14T12:16:37;99195.97;;;9.21;59.71
82035;BME280;71599;49.892;18.914;2024-02-14T12:21:39;99192.44;;;9.69;60.94
82035;BME280;71599;49.892;18.914;2024-02-14T12:26:42;99187.78;;;9.82;59.92
82035;BME280;71599;49.892;18.914;2024-02-14T12:31:43;99183.19;;;9.98;60.88
82035;BME280;71599;49.892;18.914;2024-02-14T12:36:44;99173.09;;;9.87;56.83
82035;BME280;71599;49.892;18.914;2024-02-14T12:41:46;99161.34;;;9.98;59.67
82035;BME280;71599;49.892;18.914;2024-02-14T12:46:47;99162.22;;;10.02;58.20
82035;BME280;71599;49.892;18.914;2024-02-14T12:51:48;99170.28;;;10.11;58.10
82035;BME280;71599;49.892;18.914;2024-02-14T12:56:51;99167.59;;;10.27;58.35
82035;BME280;71599;49.892;18.914;2024-02-14T13:01:52;99156.66;;;10.54;59.77
82035;BME280;71599;49.892;18.914;2024-02-14T13:06:53;99154.28;;;10.53;54.84
82035;BME280;71599;49.892;18.914;2024-02-14T13:11:55;99157.09;;;10.13;51.23
82035;BME280;71599;49.892;18.914;2024-02-14T13:16:56;99159.31;;;10.23;56.72
82035;BME280;71599;49.892;18.914;2024-02-14T13:21:57;99160.06;;;9.96;60.07
82035;BME280;71599;49.892;18.914;2024-02-14T13:26:59;99164.78;;;9.59;58.16
82035;BME280;71599;49.892;18.914;2024-02-14T13:32:00;99158.91;;;9.57;61.17
82035;BME280;71599;49.892;18.914;2024-02-14T13:37:01;99160.50;;;9.33;62.01
82035;BME280;71599;49.892;18.914;2024-02-14T13:42:04;99154.50;;;9.40;60.82
82035;BME280;71599;49.892;18.914;2024-02-14T13:47:05;99159.34;;;9.71;62.99
82035;BME280;71599;49.892;18.914;2024-02-14T13:52:06;99156.47;;;9.67;62.06
82035;BME280;71599;49.892;18.914;2024-02-14T13:57:08;99158.34;;;9.51;62.82
82035;BME280;71599;49.892;18.914;2024-02-14T14:02:09;99148.00;;;9.32;64.57
82035;BME280;71599;49.892;18.914;2024-02-14T14:07:10;99143.13;;;9.14;64.78
82035;BME280;71599;49.892;18.914;2024-02-14T14:12:13;99143.69;;;8.95;65.24
82035;BME280;71599;49.892;18.914;2024-02-14T14:17:14;99150.59;;;8.92;67.13
82035;BME280;71599;49.892;18.914;2024-02-14T14:22:15;99154.47;;;8.79;67.52
82035;BME280;71599;49.892;18.914;2024-02-14T14:27:17;99155.34;;;8.71;68.12
82035;BME280;71599;49.892;18.914;2024-02-14T14:32:18;99154.47;;;8.79;70.14
82035;BME280;71599;49.892;18.914;2024-02-14T14:37:19;99156.94;;;8.72;71.34
82035;BME280;71599;49.892;18.914;2024-02-14T14:42:21;99148.59;;;8.56;71.05
82035;BME280;71599;49.892;18.914;2024-02-14T14:47:22;99146.53;;;8.41;71.29
82035;BME280;71599;49.892;18.914;2024-02-14T14:52:23;99150.38;;;8.40;72.45
82035;BME280;71599;49.892;18.914;2024-02-14T14:57:26;99138.66;;;8.28;71.26
82035;BME280;71599;49.892;18.914;2024-02-14T15:02:27;99137.47;;;8.16;73.78
82035;BME280;71599;49.892;18.914;2024-02-14T15:07:28;99137.66;;;8.11;74.01
82035;BME280;71599;49.892;18.914;2024-02-14T15:12:30;99143.28;;;8.06;75.31
82035;BME280;71599;49.892;18.914;2024-02-14T15:17:31;99147.09;;;7.93;74.76
82035;BME280;71599;49.892;18.914;2024-02-14T15:22:32;99140.25;;;7.87;75.09
82035;BME280;71599;49.892;18.914;2024-02-14T15:27:34;99130.34;;;7.83;76.18
82035;BME280;71599;49.892;18.914;2024-02-14T15:32:35;99139.31;;;7.83;76.77
82035;BME280;71599;49.892;18.914;2024-02-14T15:37:36;99132.03;;;7.75;77.46
82035;BME280;71599;49.892;18.914;2024-02-14T15:42:39;99128.38;;;7.71;76.80
82035;BME280;71599;49.892;18.914;2024-02-14T15:47:41;99139.72;;;7.73;77.40
82035;BME280;71599;49.892;18.914;2024-02-14T15:52:42;99141.97;;;7.71;78.94
82035;BME280;71599;49.892;18.914;2024-02-14T15:57:44;99138.66;;;7.65;78.59
82035;BME280;71599;49.892;18.914;2024-02-14T16:02:47;99139.19;;;7.59;78.81
82035;BME280;71599;49.892;18.914;2024-02-14T16:07:48;99152.97;;;7.54;78.29
82035;BME280;71599;49.892;18.914;2024-02-14T16:12:51;99155.28;;;7.43;77.60
82035;BME280;71599;49.892;18.914;2024-02-14T16:17:52;99167.16;;;7.39;77.57
82035;BME280;71599;49.892;18.914;2024-02-14T16:22:52;99166.88;;;7.31;77.49
82035;BME280;71599;49.892;18.914;2024-02-14T16:27:55;99176.47;;;7.29;78.06
82035;BME280;71599;49.892;18.914;2024-02-14T16:32:56;99182.22;;;7.27;78.13
82035;BME280;71599;49.892;18.914;2024-02-14T16:37:57;99171.72;;;7.17;79.68
82035;BME280;71599;49.892;18.914;2024-02-14T16:42:59;99175.72;;;7.20;79.49
82035;BME280;71599;49.892;18.914;2024-02-14T16:48:00;99183.72;;;7.16;79.90
82035;BME280;71599;49.892;18.914;2024-02-14T16:53:01;99181.19;;;7.11;81.08
82035;BME280;71599;49.892;18.914;2024-02-14T16:58:04;99192.63;;;6.96;83.12
82035;BME280;71599;49.892;18.914;2024-02-14T17:03:10;99194.06;;;6.93;84.48
82035;BME280;71599;49.892;18.914;2024-02-14T17:08:12;99186.31;;;6.58;91.22
82035;BME280;71599;49.892;18.914;2024-02-14T17:13:14;99190.16;;;6.65;91.50
82035;BME280;71599;49.892;18.914;2024-02-14T17:18:15;99189.47;;;6.68;91.15
82035;BME280;71599;49.892;18.914;2024-02-14T17:23:16;99192.88;;;6.65;90.35
82035;BME280;71599;49.892;18.914;2024-02-14T17:28:18;99193.00;;;6.69;89.63
82035;BME280;71599;49.892;18.914;2024-02-14T17:33:19;99189.53;;;6.60;90.76
82035;BME280;71599;49.892;18.914;2024-02-14T17:38:20;99187.44;;;6.57;93.26
82035;BME280;71599;49.892;18.914;2024-02-14T17:43:22;99185.84;;;6.55;93.71
82035;BME280;71599;49.892;18.914;2024-02-14T17:48:23;99189.69;;;6.46;93.74
82035;BME280;71599;49.892;18.914;2024-02-14T17:53:24;99190.16;;;6.57;92.14
82035;BME280;71599;49.892;18.914;2024-02-14T17:58:26;99186.00;;;6.50;91.88
82035;BME280;71599;49.892;18.914;2024-02-14T18:03:27;99191.44;;;6.50;92.26
82035;BME280;71599;49.892;18.914;2024-02-14T18:08:28;99185.69;;;6.43;91.38
82035;BME280;71599;49.892;18.914;2024-02-14T18:13:31;99180.59;;;6.50;92.34
82035;BME280;71599;49.892;18.914;2024-02-14T18:18:31;99190.63;;;6.50;92.82
82035;BME280;71599;49.892;18.914;2024-02-14T18:23:32;99186.50;;;6.44;92.97
82035;BME280;71599;49.892;18.914;2024-02-14T18:28:35;99182.84;;;6.40;92.58
82035;BME280;71599;49.892;18.914;2024-02-14T18:33:36;99184.09;;;6.25;94.10
82035;BME280;71599;49.892;18.914;2024-02-14T18:38:36;99196.56;;;6.26;95.84
82035;BME280;71599;49.892;18.914;2024-02-14T18:43:39;99197.22;;;6.23;93.71
82035;BME280;71599;49.892;18.914;2024-02-14T18:48:40;99201.81;;;6.14;92.11
82035;BME280;71599;49.892;18.914;2024-02-14T18:53:40;99203.91;;;6.08;92.45
82035;BME280;71599;49.892;18.914;2024-02-14T18:58:43;99198.34;;;6.05;92.63
82035;BME280;71599;49.892;18.914;2024-02-14T19:03:44;99203.88;;;6.00;92.79
82035;BME280;71599;49.892;18.914;2024-02-14T19:08:45;99200.53;;;5.94;93.59
82035;BME280;71599;49.892;18.914;2024-02-14T19:13:47;99203.59;;;5.93;94.11
82035;BME280;71599;49.892;18.914;2024-02-14T19:18:48;99207.06;;;5.93;93.47
82035;BME280;71599;49.892;18.914;2024-02-14T19:23:49;99204.38;;;5.85;92.70
82035;BME280;71599;49.892;18.914;2024-02-14T19:28:52;99202.78;;;5.84;92.66
82035;BME280;71599;49.892;18.914;2024-02-14T19:33:53;99200.06;;;5.84;97.14
82035;BME280;71599;49.892;18.914;2024-02-14T19:38:53;99198.63;;;5.86;99.48
82035;BME280;71599;49.892;18.914;2024-02-14T19:43:56;99200.84;;;5.84;97.69
82035;BME280;71599;49.892;18.914;2024-02-14T19:48:57;99193.53;;;5.85;98.33
82035;BME280;71599;49.892;18.914;2024-02-14T19:53:58;99196.22;;;5.85;97.89
82035;BME280;71599;49.892;18.914;2024-02-14T19:59:00;99194.78;;;5.79;98.81
82035;BME280;71599;49.892;18.914;2024-02-14T20:04:01;99195.75;;;5.83;96.79
82035;BME280;71599;49.892;18.914;2024-02-14T20:09:02;99194.00;;;5.87;99.28
82035;BME280;71599;49.892;18.914;2024-02-14T20:14:05;99197.03;;;5.85;98.25
82035;BME280;71599;49.892;18.914;2024-02-14T20:19:06;99191.75;;;5.89;99.18
82035;BME280;71599;49.892;18.914;2024-02-14T20:24:07;99194.63;;;5.84;98.33
82035;BME280;71599;49.892;18.914;2024-02-14T20:29:09;99189.53;;;5.82;99.04
82035;BME280;71599;49.892;18.914;2024-02-14T20:34:10;99196.06;;;5.90;97.52
82035;BME280;71599;49.892;18.914;2024-02-14T20:39:11;99196.56;;;5.92;97.09
82035;BME280;71599;49.892;18.914;2024-02-14T20:44:13;99190.66;;;5.98;96.71
82035;BME280;71599;49.892;18.914;2024-02-14T20:49:14;99195.13;;;6.03;95.42
82035;BME280;71599;49.892;18.914;2024-02-14T20:54:15;99191.75;;;6.06;94.81
82035;BME280;71599;49.892;18.914;2024-02-14T20:59:17;99187.47;;;6.05;95.49
82035;BME280;71599;49.892;18.914;2024-02-14T21:04:18;99195.63;;;6.05;96.41
82035;BME280;71599;49.892;18.914;2024-02-14T21:09:19;99190.19;;;6.05;94.54
82035;BME280;71599;49.892;18.914;2024-02-14T21:14:21;99179.47;;;6.08;93.22
82035;BME280;71599;49.892;18.914;2024-02-14T21:19:22;99185.84;;;6.12;92.44
82035;BME280;71599;49.892;18.914;2024-02-14T21:24:24;99186.03;;;6.16;93.89
82035;BME280;71599;49.892;18.914;2024-02-14T21:29:26;99188.41;;;6.18;94.54
82035;BME280;71599;49.892;18.914;2024-02-14T21:34:27;99181.41;;;6.17;95.19
82035;BME280;71599;49.892;18.914;2024-02-14T21:39:28;99189.38;;;6.13;94.21
82035;BME280;71599;49.892;18.914;2024-02-14T21:44:30;99191.94;;;6.09;93.53
82035;BME280;71599;49.892;18.914;2024-02-14T21:49:31;99199.75;;;6.11;94.04
82035;BME280;71599;49.892;18.914;2024-02-14T21:54:32;99188.91;;;6.11;95.82
82035;BME280;71599;49.892;18.914;2024-02-14T21:59:34;99195.44;;;6.10;95.16
82035;BME280;71599;49.892;18.914;2024-02-14T22:04:35;99197.50;;;6.13;95.58
82035;BME280;71599;49.892;18.914;2024-02-14T22:09:36;99201.50;;;6.15;96.49
82035;BME280;71599;49.892;18.914;2024-02-14T22:14:39;99194.50;;;6.23;96.74
82035;BME280;71599;49.892;18.914;2024-02-14T22:19:40;99202.97;;;6.30;97.60
82035;BME280;71599;49.892;18.914;2024-02-14T22:24:41;99206.66;;;6.34;97.67
82035;BME280;71599;49.892;18.914;2024-02-14T22:29:45;99201.34;;;6.38;97.59
82035;BME280;71599;49.892;18.914;2024-02-14T22:34:46;99202.00;;;6.43;97.07
82035;BME280;71599;49.892;18.914;2024-02-14T22:39:47;99196.06;;;6.50;95.48
82035;BME280;71599;49.892;18.914;2024-02-14T22:44:50;99206.31;;;6.53;93.22
82035;BME280;71599;49.892;18.914;2024-02-14T22:49:51;99195.72;;;6.60;92.36
82035;BME280;71599;49.892;18.914;2024-02-14T22:54:52;99202.25;;;6.68;92.60
82035;BME280;71599;49.892;18.914;2024-02-14T22:59:54;99200.97;;;6.74;92.11
82035;BME280;71599;49.892;18.914;2024-02-14T23:04:55;99195.03;;;6.80;92.50
82035;BME280;71599;49.892;18.914;2024-02-14T23:09:56;99202.88;;;6.82;92.07
82035;BME280;71599;49.892;18.914;2024-02-14T23:14:58;99194.06;;;6.85;91.99
82035;BME280;71599;49.892;18.914;2024-02-14T23:19:59;99195.03;;;6.80;92.70
82035;BME280;71599;49.892;18.914;2024-02-14T23:25:01;99198.88;;;6.79;93.37
82035;BME280;71599;49.892;18.914;2024-02-14T23:30:05;99189.63;;;6.80;93.07
82035;BME280;71599;49.892;18.914;2024-02-14T23:35:07;99185.47;;;6.83;93.12
82035;BME280;71599;49.892;18.914;2024-02-14T23:40:09;99183.69;;;6.87;92.38
82035;BME280;71599;49.892;18.914;2024-02-14T23:45:12;99179.38;;;6.86;91.94
82035;BME280;71599;49.892;18.914;2024-02-14T23:50:13;99177.31;;;6.83;92.24
82035;BME280;71599;49.892;18.914;2024-02-14T23:55:14;99180.34;;;6.81;92.95
